sensor_id;sensor_type;location;lat;lon;timestamp;P1;durP1;ratioP1;P2;durP2;ratioP2
24613;SDS011;12760;46.296;25.290;2022-12-07T00:00:48;10.13;;;6.13;;
24613;SDS011;12760;46.296;25.290;2022-12-07T00:03:14;4.63;;;4.33;;
24613;SDS011;12760;46.296;25.290;2022-12-07T00:05:40;3.87;;;3.67;;
24613;SDS011;12760;46.296;25.290;2022-12-07T00:08:06;6.37;;;5.93;;
24613;SDS011;12760;46.296;25.290;2022-12-07T00:10:33;6.63;;;5.93;;
24613;SDS011;12760;46.296;25.290;2022-12-07T00:12:59;2.53;;;2.43;;
24613;SDS011;12760;46.296;25.290;2022-12-07T00:15:25;1.93;;;1.93;;
24613;SDS011;12760;46.296;25.290;2022-12-07T00:17:50;2.20;;;2.20;;
24613;SDS011;12760;46.296;25.290;2022-12-07T00:20:16;3.00;;;2.90;;
24613;SDS011;12760;46.296;25.290;2022-12-07T00:22:42;3.00;;;2.90;;
24613;SDS011;12760;46.296;25.290;2022-12-07T00:25:07;6.93;;;3.37;;
24613;SDS011;12760;46.296;25.290;2022-12-07T00:27:33;5.10;;;4.80;;
24613;SDS011;12760;46.296;25.290;2022-12-07T00:29:59;2.10;;;2.10;;
24613;SDS011;12760;46.296;25.290;2022-12-07T00:32:25;6.63;;;3.33;;
24613;SDS011;12760;46.296;25.290;2022-12-07T00:34:51;1.67;;;1.67;;
24613;SDS011;12760;46.296;25.290;2022-12-07T00:37:16;2.70;;;2.63;;
24613;SDS011;12760;46.296;25.290;2022-12-07T00:39:42;2.37;;;2.33;;
24613;SDS011;12760;46.296;25.290;2022-12-07T00:42:08;1.93;;;1.93;;
24613;SDS011;12760;46.296;25.290;2022-12-07T00:44:33;2.47;;;2.40;;
24613;SDS011;12760;46.296;25.290;2022-12-07T00:46:59;1.70;;;1.70;;
24613;SDS011;12760;46.296;25.290;2022-12-07T00:49:25;1.70;;;1.70;;
24613;SDS011;12760;46.296;25.290;2022-12-07T00:51:50;5.00;;;4.80;;
24613;SDS011;12760;46.296;25.290;2022-12-07T00:54:16;2.00;;;1.90;;
24613;SDS011;12760;46.296;25.290;2022-12-07T00:56:42;3.00;;;2.90;;
24613;SDS011;12760;46.296;25.290;2022-12-07T00:59:10;2.63;;;2.53;;
24613;SDS011;12760;46.296;25.290;2022-12-07T01:01:40;3.57;;;3.37;;
24613;SDS011;12760;46.296;25.290;2022-12-07T01:04:05;6.50;;;4.40;;
24613;SDS011;12760;46.296;25.290;2022-12-07T01:06:31;1.60;;;1.60;;
24613;SDS011;12760;46.296;25.290;2022-12-07T01:08:57;2.50;;;2.40;;
24613;SDS011;12760;46.296;25.290;2022-12-07T01:11:24;3.27;;;3.03;;
24613;SDS011;12760;46.296;25.290;2022-12-07T01:13:52;3.40;;;3.20;;
24613;SDS011;12760;46.296;25.290;2022-12-07T01:16:19;2.33;;;2.33;;
24613;SDS011;12760;46.296;25.290;2022-12-07T01:18:46;1.60;;;1.60;;
24613;SDS011;12760;46.296;25.290;2022-12-07T01:21:15;3.80;;;3.60;;
24613;SDS011;12760;46.296;25.290;2022-12-07T01:23:49;1.50;;;1.50;;
24613;SDS011;12760;46.296;25.290;2022-12-07T01:26:16;14.73;;;5.13;;
24613;SDS011;12760;46.296;25.290;2022-12-07T01:28:43;4.93;;;4.50;;
24613;SDS011;12760;46.296;25.290;2022-12-07T01:31:11;1.57;;;1.57;;
24613;SDS011;12760;46.296;25.290;2022-12-07T01:33:43;4.87;;;4.40;;
24613;SDS011;12760;46.296;25.290;2022-12-07T01:39:06;4.07;;;3.87;;
24613;SDS011;12760;46.296;25.290;2022-12-07T01:41:35;2.60;;;2.50;;
24613;SDS011;12760;46.296;25.290;2022-12-07T01:44:15;1.97;;;1.97;;
24613;SDS011;12760;46.296;25.290;2022-12-07T01:46:42;3.03;;;2.93;;
24613;SDS011;12760;46.296;25.290;2022-12-07T01:49:11;2.63;;;2.53;;
24613;SDS011;12760;46.296;25.290;2022-12-07T01:51:47;3.27;;;3.17;;
24613;SDS011;12760;46.296;25.290;2022-12-07T01:54:14;3.43;;;3.23;;
24613;SDS011;12760;46.296;25.290;2022-12-07T01:56:42;9.80;;;4.00;;
24613;SDS011;12760;46.296;25.290;2022-12-07T01:59:14;1.90;;;1.90;;
24613;SDS011;12760;46.296;25.290;2022-12-07T02:01:41;2.10;;;2.10;;
24613;SDS011;12760;46.296;25.290;2022-12-07T02:04:07;3.67;;;3.43;;
24613;SDS011;12760;46.296;25.290;2022-12-07T02:06:33;2.67;;;2.57;;
24613;SDS011;12760;46.296;25.290;2022-12-07T02:09:00;1.87;;;1.87;;
24613;SDS011;12760;46.296;25.290;2022-12-07T02:11:26;2.83;;;2.73;;
24613;SDS011;12760;46.296;25.290;2022-12-07T02:13:52;4.57;;;4.23;;
24613;SDS011;12760;46.296;25.290;2022-12-07T02:25:14;1.80;;;1.80;;
24613;SDS011;12760;46.296;25.290;2022-12-07T02:28:05;1.60;;;1.60;;
24613;SDS011;12760;46.296;25.290;2022-12-07T02:30:45;1.67;;;1.67;;
24613;SDS011;12760;46.296;25.290;2022-12-07T02:33:17;1.43;;;1.43;;
24613;SDS011;12760;46.296;25.290;2022-12-07T02:35:55;2.40;;;2.30;;
24613;SDS011;12760;46.296;25.290;2022-12-07T02:38:29;1.53;;;1.53;;
24613;SDS011;12760;46.296;25.290;2022-12-07T02:43:34;2.07;;;2.07;;
24613;SDS011;12760;46.296;25.290;2022-12-07T02:46:22;14.57;;;3.83;;
24613;SDS011;12760;46.296;25.290;2022-12-07T02:48:51;2.63;;;2.53;;
24613;SDS011;12760;46.296;25.290;2022-12-07T02:51:18;3.50;;;3.30;;
24613;SDS011;12760;46.296;25.290;2022-12-07T02:53:44;2.17;;;2.10;;
24613;SDS011;12760;46.296;25.290;2022-12-07T03:04:32;1.80;;;1.80;;
24613;SDS011;12760;46.296;25.290;2022-12-07T03:07:24;2.67;;;2.57;;
24613;SDS011;12760;46.296;25.290;2022-12-07T03:10:02;2.03;;;1.93;;
24613;SDS011;12760;46.296;25.290;2022-12-07T03:12:35;2.40;;;2.30;;
24613;SDS011;12760;46.296;25.290;2022-12-07T03:15:31;2.27;;;2.17;;
24613;SDS011;12760;46.296;25.290;2022-12-07T03:18:03;2.63;;;2.53;;
24613;SDS011;12760;46.296;25.290;2022-12-07T03:20:30;3.30;;;3.13;;
24613;SDS011;12760;46.296;25.290;2022-12-07T03:22:59;1.43;;;1.43;;
24613;SDS011;12760;46.296;25.290;2022-12-07T03:25:25;1.77;;;1.77;;
24613;SDS011;12760;46.296;25.290;2022-12-07T03:27:53;1.77;;;1.77;;
24613;SDS011;12760;46.296;25.290;2022-12-07T03:30:27;1.90;;;1.90;;
24613;SDS011;12760;46.296;25.290;2022-12-07T03:35:49;3.47;;;2.97;;
24613;SDS011;12760;46.296;25.290;2022-12-07T03:38:28;1.87;;;1.87;;
24613;SDS011;12760;46.296;25.290;2022-12-07T03:41:23;1.43;;;1.43;;
24613;SDS011;12760;46.296;25.290;2022-12-07T03:43:49;2.10;;;2.10;;
24613;SDS011;12760;46.296;25.290;2022-12-07T03:52:03;3.07;;;2.90;;
24613;SDS011;12760;46.296;25.290;2022-12-07T03:54:37;4.50;;;3.60;;
24613;SDS011;12760;46.296;25.290;2022-12-07T03:57:25;1.53;;;1.53;;
24613;SDS011;12760;46.296;25.290;2022-12-07T03:59:54;3.03;;;2.83;;
24613;SDS011;12760;46.296;25.290;2022-12-07T04:02:21;5.13;;;3.30;;
24613;SDS011;12760;46.296;25.290;2022-12-07T04:04:48;1.67;;;1.67;;
24613;SDS011;12760;46.296;25.290;2022-12-07T04:07:14;2.67;;;2.57;;
24613;SDS011;12760;46.296;25.290;2022-12-07T04:09:40;1.60;;;1.60;;
24613;SDS011;12760;46.296;25.290;2022-12-07T04:12:06;1.70;;;1.70;;
24613;SDS011;12760;46.296;25.290;2022-12-07T04:14:32;1.83;;;1.80;;
24613;SDS011;12760;46.296;25.290;2022-12-07T04:16:58;2.77;;;2.67;;
24613;SDS011;12760;46.296;25.290;2022-12-07T04:19:25;1.80;;;1.80;;
24613;SDS011;12760;46.296;25.290;2022-12-07T04:21:53;1.57;;;1.57;;
24613;SDS011;12760;46.296;25.290;2022-12-07T04:24:19;1.57;;;1.57;;
24613;SDS011;12760;46.296;25.290;2022-12-07T04:26:46;1.43;;;1.43;;
24613;SDS011;12760;46.296;25.290;2022-12-07T04:29:12;1.80;;;1.80;;
24613;SDS011;12760;46.296;25.290;2022-12-07T04:31:40;1.70;;;1.70;;
24613;SDS011;12760;46.296;25.290;2022-12-07T04:34:06;2.77;;;2.67;;
24613;SDS011;12760;46.296;25.290;2022-12-07T04:36:32;2.80;;;2.70;;
24613;SDS011;12760;46.296;25.290;2022-12-07T04:38:58;2.93;;;2.83;;
24613;SDS011;12760;46.296;25.290;2022-12-07T04:41:24;2.80;;;2.60;;
24613;SDS011;12760;46.296;25.290;2022-12-07T04:43:54;2.27;;;2.17;;
24613;SDS011;12760;46.296;25.290;2022-12-07T04:46:20;2.67;;;2.57;;
24613;SDS011;12760;46.296;25.290;2022-12-07T04:48:47;2.00;;;2.00;;
24613;SDS011;12760;46.296;25.290;2022-12-07T04:51:14;2.67;;;2.57;;
24613;SDS011;12760;46.296;25.290;2022-12-07T04:53:43;1.83;;;1.83;;
24613;SDS011;12760;46.296;25.290;2022-12-07T04:56:08;1.97;;;1.90;;
24613;SDS011;12760;46.296;25.290;2022-12-07T04:58:34;2.03;;;2.03;;
24613;SDS011;12760;46.296;25.290;2022-12-07T05:01:00;4.27;;;4.00;;
24613;SDS011;12760;46.296;25.290;2022-12-07T05:03:25;2.83;;;2.63;;
24613;SDS011;12760;46.296;25.290;2022-12-07T05:05:51;1.50;;;1.50;;
24613;SDS011;12760;46.296;25.290;2022-12-07T05:08:17;2.87;;;2.77;;
24613;SDS011;12760;46.296;25.290;2022-12-07T05:10:42;2.60;;;2.50;;
24613;SDS011;12760;46.296;25.290;2022-12-07T05:13:08;2.03;;;2.00;;
24613;SDS011;12760;46.296;25.290;2022-12-07T05:15:34;2.73;;;2.60;;
24613;SDS011;12760;46.296;25.290;2022-12-07T05:18:01;15.73;;;4.23;;
24613;SDS011;12760;46.296;25.290;2022-12-07T05:20:28;3.03;;;2.83;;
24613;SDS011;12760;46.296;25.290;2022-12-07T05:22:54;2.87;;;2.67;;
24613;SDS011;12760;46.296;25.290;2022-12-07T05:25:19;1.60;;;1.60;;
24613;SDS011;12760;46.296;25.290;2022-12-07T05:27:45;1.63;;;1.63;;
24613;SDS011;12760;46.296;25.290;2022-12-07T05:30:11;2.47;;;2.37;;
24613;SDS011;12760;46.296;25.290;2022-12-07T05:32:37;2.40;;;2.20;;
24613;SDS011;12760;46.296;25.290;2022-12-07T05:35:03;2.60;;;2.50;;
24613;SDS011;12760;46.296;25.290;2022-12-07T05:37:29;1.70;;;1.70;;
24613;SDS011;12760;46.296;25.290;2022-12-07T05:39:54;1.13;;;1.13;;
24613;SDS011;12760;46.296;25.290;2022-12-07T05:42:20;1.73;;;1.73;;
24613;SDS011;12760;46.296;25.290;2022-12-07T05:44:46;1.40;;;1.40;;
24613;SDS011;12760;46.296;25.290;2022-12-07T05:47:12;1.37;;;1.37;;
24613;SDS011;12760;46.296;25.290;2022-12-07T05:49:39;1.50;;;1.50;;
24613;SDS011;12760;46.296;25.290;2022-12-07T05:52:04;2.00;;;2.00;;
24613;SDS011;12760;46.296;25.290;2022-12-07T05:54:30;1.83;;;1.83;;
24613;SDS011;12760;46.296;25.290;2022-12-07T05:56:56;2.27;;;2.17;;
24613;SDS011;12760;46.296;25.290;2022-12-07T05:59:22;3.63;;;3.43;;
24613;SDS011;12760;46.296;25.290;2022-12-07T06:01:55;1.87;;;1.77;;
24613;SDS011;12760;46.296;25.290;2022-12-07T06:04:22;1.67;;;1.67;;
24613;SDS011;12760;46.296;25.290;2022-12-07T06:06:49;1.90;;;1.90;;
24613;SDS011;12760;46.296;25.290;2022-12-07T06:09:15;3.03;;;2.77;;
24613;SDS011;12760;46.296;25.290;2022-12-07T06:11:41;1.67;;;1.67;;
24613;SDS011;12760;46.296;25.290;2022-12-07T06:14:25;2.20;;;2.17;;
24613;SDS011;12760;46.296;25.290;2022-12-07T06:16:51;2.67;;;2.57;;
24613;SDS011;12760;46.296;25.290;2022-12-07T06:19:17;2.57;;;2.47;;
24613;SDS011;12760;46.296;25.290;2022-12-07T06:21:43;1.83;;;1.83;;
24613;SDS011;12760;46.296;25.290;2022-12-07T06:24:09;3.43;;;3.23;;
24613;SDS011;12760;46.296;25.290;2022-12-07T06:26:37;2.23;;;2.13;;
24613;SDS011;12760;46.296;25.290;2022-12-07T06:29:03;2.73;;;2.63;;
24613;SDS011;12760;46.296;25.290;2022-12-07T06:31:28;3.20;;;3.00;;
24613;SDS011;12760;46.296;25.290;2022-12-07T06:34:00;1.97;;;1.97;;
24613;SDS011;12760;46.296;25.290;2022-12-07T06:36:28;2.57;;;2.47;;
24613;SDS011;12760;46.296;25.290;2022-12-07T06:38:54;1.57;;;1.57;;
24613;SDS011;12760;46.296;25.290;2022-12-07T06:41:20;2.83;;;2.73;;
24613;SDS011;12760;46.296;25.290;2022-12-07T06:43:46;2.77;;;2.67;;
24613;SDS011;12760;46.296;25.290;2022-12-07T06:46:12;4.87;;;4.60;;
24613;SDS011;12760;46.296;25.290;2022-12-07T06:48:39;3.70;;;3.50;;
24613;SDS011;12760;46.296;25.290;2022-12-07T06:51:05;3.40;;;3.30;;
24613;SDS011;12760;46.296;25.290;2022-12-07T06:53:31;5.83;;;5.43;;
24613;SDS011;12760;46.296;25.290;2022-12-07T06:55:57;6.53;;;3.80;;
24613;SDS011;12760;46.296;25.290;2022-12-07T06:58:23;7.00;;;6.47;;
24613;SDS011;12760;46.296;25.290;2022-12-07T07:00:49;4.33;;;4.07;;
24613;SDS011;12760;46.296;25.290;2022-12-07T07:03:15;9.90;;;7.00;;
24613;SDS011;12760;46.296;25.290;2022-12-07T07:05:42;3.40;;;3.30;;
24613;SDS011;12760;46.296;25.290;2022-12-07T07:08:08;4.17;;;3.77;;
24613;SDS011;12760;46.296;25.290;2022-12-07T07:10:34;4.07;;;3.87;;
24613;SDS011;12760;46.296;25.290;2022-12-07T07:13:01;8.10;;;7.60;;
24613;SDS011;12760;46.296;25.290;2022-12-07T07:15:27;6.60;;;6.30;;
24613;SDS011;12760;46.296;25.290;2022-12-07T07:17:53;8.00;;;7.27;;
24613;SDS011;12760;46.296;25.290;2022-12-07T07:20:19;18.77;;;10.57;;
24613;SDS011;12760;46.296;25.290;2022-12-07T07:22:45;14.17;;;7.87;;
24613;SDS011;12760;46.296;25.290;2022-12-07T07:25:10;7.47;;;6.73;;
24613;SDS011;12760;46.296;25.290;2022-12-07T07:27:36;9.00;;;7.20;;
24613;SDS011;12760;46.296;25.290;2022-12-07T07:30:02;4.63;;;4.23;;
24613;SDS011;12760;46.296;25.290;2022-12-07T07:32:28;9.17;;;8.23;;
24613;SDS011;12760;46.296;25.290;2022-12-07T07:34:54;3.57;;;3.37;;
24613;SDS011;12760;46.296;25.290;2022-12-07T07:37:20;3.03;;;2.93;;
24613;SDS011;12760;46.296;25.290;2022-12-07T07:39:45;3.17;;;3.00;;
24613;SDS011;12760;46.296;25.290;2022-12-07T07:42:11;6.90;;;4.90;;
24613;SDS011;12760;46.296;25.290;2022-12-07T07:44:37;11.87;;;4.63;;
24613;SDS011;12760;46.296;25.290;2022-12-07T07:47:02;2.90;;;2.80;;
24613;SDS011;12760;46.296;25.290;2022-12-07T07:49:28;2.60;;;2.40;;
24613;SDS011;12760;46.296;25.290;2022-12-07T07:51:54;2.83;;;2.73;;
24613;SDS011;12760;46.296;25.290;2022-12-07T07:54:20;2.67;;;2.57;;
24613;SDS011;12760;46.296;25.290;2022-12-07T07:56:45;4.93;;;4.50;;
24613;SDS011;12760;46.296;25.290;2022-12-07T07:59:11;5.00;;;4.60;;
24613;SDS011;12760;46.296;25.290;2022-12-07T08:01:37;4.03;;;3.83;;
24613;SDS011;12760;46.296;25.290;2022-12-07T08:04:02;2.40;;;2.30;;
24613;SDS011;12760;46.296;25.290;2022-12-07T08:06:28;5.03;;;4.53;;
24613;SDS011;12760;46.296;25.290;2022-12-07T08:08:54;1.87;;;1.87;;
24613;SDS011;12760;46.296;25.290;2022-12-07T08:11:19;1.77;;;1.77;;
24613;SDS011;12760;46.296;25.290;2022-12-07T08:13:45;3.27;;;3.07;;
24613;SDS011;12760;46.296;25.290;2022-12-07T08:16:12;2.23;;;2.23;;
24613;SDS011;12760;46.296;25.290;2022-12-07T08:18:40;3.10;;;3.00;;
24613;SDS011;12760;46.296;25.290;2022-12-07T08:21:07;3.10;;;2.67;;
24613;SDS011;12760;46.296;25.290;2022-12-07T08:23:36;2.83;;;2.73;;
24613;SDS011;12760;46.296;25.290;2022-12-07T08:26:03;2.03;;;1.97;;
24613;SDS011;12760;46.296;25.290;2022-12-07T08:28:31;1.77;;;1.77;;
24613;SDS011;12760;46.296;25.290;2022-12-07T08:31:00;2.20;;;2.13;;
24613;SDS011;12760;46.296;25.290;2022-12-07T08:33:28;1.73;;;1.73;;
24613;SDS011;12760;46.296;25.290;2022-12-07T08:35:53;7.00;;;4.43;;
24613;SDS011;12760;46.296;25.290;2022-12-07T08:38:19;1.90;;;1.90;;
24613;SDS011;12760;46.296;25.290;2022-12-07T08:40:53;2.30;;;2.13;;
24613;SDS011;12760;46.296;25.290;2022-12-07T08:43:22;2.77;;;2.57;;
24613;SDS011;12760;46.296;25.290;2022-12-07T08:45:49;2.40;;;2.30;;
24613;SDS011;12760;46.296;25.290;2022-12-07T08:48:32;2.37;;;2.27;;
24613;SDS011;12760;46.296;25.290;2022-12-07T08:51:00;7.67;;;4.43;;
24613;SDS011;12760;46.296;25.290;2022-12-07T08:53:28;2.40;;;2.30;;
24613;SDS011;12760;46.296;25.290;2022-12-07T08:55:54;3.23;;;3.13;;
24613;SDS011;12760;46.296;25.290;2022-12-07T08:58:21;2.47;;;2.37;;
24613;SDS011;12760;46.296;25.290;2022-12-07T09:00:47;2.40;;;2.17;;
24613;SDS011;12760;46.296;25.290;2022-12-07T09:03:13;2.13;;;2.03;;
24613;SDS011;12760;46.296;25.290;2022-12-07T09:05:38;3.73;;;3.57;;
24613;SDS011;12760;46.296;25.290;2022-12-07T09:08:04;0.93;;;0.93;;
24613;SDS011;12760;46.296;25.290;2022-12-07T09:10:31;2.57;;;2.47;;
24613;SDS011;12760;46.296;25.290;2022-12-07T09:12:57;1.97;;;1.97;;
24613;SDS011;12760;46.296;25.290;2022-12-07T09:15:29;2.93;;;2.83;;
24613;SDS011;12760;46.296;25.290;2022-12-07T09:17:55;2.57;;;2.47;;
24613;SDS011;12760;46.296;25.290;2022-12-07T09:20:21;1.47;;;1.47;;
24613;SDS011;12760;46.296;25.290;2022-12-07T09:22:47;2.27;;;2.10;;
24613;SDS011;12760;46.296;25.290;2022-12-07T09:25:12;1.53;;;1.53;;
24613;SDS011;12760;46.296;25.290;2022-12-07T09:27:38;1.27;;;1.27;;
24613;SDS011;12760;46.296;25.290;2022-12-07T09:30:04;2.07;;;2.07;;
24613;SDS011;12760;46.296;25.290;2022-12-07T09:32:31;2.77;;;2.67;;
24613;SDS011;12760;46.296;25.290;2022-12-07T09:34:56;1.40;;;1.40;;
24613;SDS011;12760;46.296;25.290;2022-12-07T09:37:22;2.23;;;2.17;;
24613;SDS011;12760;46.296;25.290;2022-12-07T09:39:48;2.43;;;2.33;;
24613;SDS011;12760;46.296;25.290;2022-12-07T09:42:23;1.57;;;1.57;;
24613;SDS011;12760;46.296;25.290;2022-12-07T09:44:58;1.73;;;1.73;;
24613;SDS011;12760;46.296;25.290;2022-12-07T09:47:24;1.70;;;1.70;;
24613;SDS011;12760;46.296;25.290;2022-12-07T09:49:50;1.40;;;1.40;;
24613;SDS011;12760;46.296;25.290;2022-12-07T09:52:18;1.47;;;1.47;;
24613;SDS011;12760;46.296;25.290;2022-12-07T09:54:52;1.57;;;1.57;;
24613;SDS011;12760;46.296;25.290;2022-12-07T09:57:19;2.87;;;2.43;;
24613;SDS011;12760;46.296;25.290;2022-12-07T09:59:59;1.73;;;1.73;;
24613;SDS011;12760;46.296;25.290;2022-12-07T10:02:38;1.57;;;1.57;;
24613;SDS011;12760;46.296;25.290;2022-12-07T10:05:21;1.90;;;1.80;;
24613;SDS011;12760;46.296;25.290;2022-12-07T10:07:53;1.57;;;1.57;;
24613;SDS011;12760;46.296;25.290;2022-12-07T10:10:33;1.17;;;1.17;;
24613;SDS011;12760;46.296;25.290;2022-12-07T10:13:04;1.27;;;1.27;;
24613;SDS011;12760;46.296;25.290;2022-12-07T10:21:05;2.37;;;2.27;;
24613;SDS011;12760;46.296;25.290;2022-12-07T10:23:32;1.90;;;1.80;;
24613;SDS011;12760;46.296;25.290;2022-12-07T10:25:59;2.70;;;2.60;;
24613;SDS011;12760;46.296;25.290;2022-12-07T10:28:51;2.47;;;2.43;;
24613;SDS011;12760;46.296;25.290;2022-12-07T10:31:18;1.47;;;1.47;;
24613;SDS011;12760;46.296;25.290;2022-12-07T10:34:08;1.93;;;1.93;;
24613;SDS011;12760;46.296;25.290;2022-12-07T10:36:46;1.33;;;1.33;;
24613;SDS011;12760;46.296;25.290;2022-12-07T10:39:15;2.07;;;2.00;;
24613;SDS011;12760;46.296;25.290;2022-12-07T10:41:56;2.20;;;2.10;;
24613;SDS011;12760;46.296;25.290;2022-12-07T10:44:25;1.43;;;1.43;;
24613;SDS011;12760;46.296;25.290;2022-12-07T10:52:50;1.57;;;1.57;;
24613;SDS011;12760;46.296;25.290;2022-12-07T11:06:54;1.60;;;1.60;;
24613;SDS011;12760;46.296;25.290;2022-12-07T11:12:11;1.50;;;1.50;;
24613;SDS011;12760;46.296;25.290;2022-12-07T11:15:02;1.03;;;1.03;;
24613;SDS011;12760;46.296;25.290;2022-12-07T11:23:11;4.77;;;1.83;;
24613;SDS011;12760;46.296;25.290;2022-12-07T11:25:44;1.43;;;1.43;;
24613;SDS011;12760;46.296;25.290;2022-12-07T11:34:34;1.57;;;1.57;;
24613;SDS011;12760;46.296;25.290;2022-12-07T11:37:13;1.57;;;1.57;;
24613;SDS011;12760;46.296;25.290;2022-12-07T11:39:49;18.83;;;3.23;;
24613;SDS011;12760;46.296;25.290;2022-12-07T11:45:19;3.57;;;3.27;;
24613;SDS011;12760;46.296;25.290;2022-12-07T11:47:57;1.50;;;1.50;;
24613;SDS011;12760;46.296;25.290;2022-12-07T11:50:33;2.30;;;2.20;;
24613;SDS011;12760;46.296;25.290;2022-12-07T11:58:35;13.03;;;4.13;;
24613;SDS011;12760;46.296;25.290;2022-12-07T12:01:14;1.77;;;1.77;;
24613;SDS011;12760;46.296;25.290;2022-12-07T12:06:32;1.63;;;1.63;;
24613;SDS011;12760;46.296;25.290;2022-12-07T12:09:09;1.50;;;1.50;;
24613;SDS011;12760;46.296;25.290;2022-12-07T12:12:19;48.80;;;3.97;;
24613;SDS011;12760;46.296;25.290;2022-12-07T12:20:37;1.37;;;1.37;;
24613;SDS011;12760;46.296;25.290;2022-12-07T12:23:15;1.90;;;1.83;;
24613;SDS011;12760;46.296;25.290;2022-12-07T12:25:43;2.43;;;2.33;;
24613;SDS011;12760;46.296;25.290;2022-12-07T12:28:23;1.17;;;1.17;;
24613;SDS011;12760;46.296;25.290;2022-12-07T12:33:47;1.33;;;1.33;;
24613;SDS011;12760;46.296;25.290;2022-12-07T12:51:49;3.87;;;3.63;;
24613;SDS011;12760;46.296;25.290;2022-12-07T12:54:32;1.33;;;1.33;;
24613;SDS011;12760;46.296;25.290;2022-12-07T13:15:41;3.27;;;3.17;;
24613;SDS011;12760;46.296;25.290;2022-12-07T13:18:34;4.17;;;3.93;;
24613;SDS011;12760;46.296;25.290;2022-12-07T13:23:52;3.53;;;3.43;;
24613;SDS011;12760;46.296;25.290;2022-12-07T13:26:35;2.23;;;2.13;;
24613;SDS011;12760;46.296;25.290;2022-12-07T13:29:13;7.40;;;5.60;;
24613;SDS011;12760;46.296;25.290;2022-12-07T13:34:31;2.87;;;2.73;;
24613;SDS011;12760;46.296;25.290;2022-12-07T13:37:04;3.33;;;3.23;;
24613;SDS011;12760;46.296;25.290;2022-12-07T13:39:46;1.90;;;1.90;;
24613;SDS011;12760;46.296;25.290;2022-12-07T13:42:29;3.73;;;3.43;;
24613;SDS011;12760;46.296;25.290;2022-12-07T13:44:57;3.23;;;3.03;;
24613;SDS011;12760;46.296;25.290;2022-12-07T13:49:52;4.50;;;4.03;;
24613;SDS011;12760;46.296;25.290;2022-12-07T13:52:26;3.17;;;3.00;;
24613;SDS011;12760;46.296;25.290;2022-12-07T13:54:58;3.47;;;3.30;;
24613;SDS011;12760;46.296;25.290;2022-12-07T13:57:26;11.20;;;3.30;;
24613;SDS011;12760;46.296;25.290;2022-12-07T13:59:53;2.30;;;2.30;;
24613;SDS011;12760;46.296;25.290;2022-12-07T14:05:05;1.60;;;1.60;;
24613;SDS011;12760;46.296;25.290;2022-12-07T14:07:47;3.70;;;3.60;;
24613;SDS011;12760;46.296;25.290;2022-12-07T14:13:29;3.60;;;3.47;;
24613;SDS011;12760;46.296;25.290;2022-12-07T14:15:56;2.50;;;2.40;;
24613;SDS011;12760;46.296;25.290;2022-12-07T14:23:36;7.37;;;4.43;;
24613;SDS011;12760;46.296;25.290;2022-12-07T14:26:13;27.37;;;7.50;;
24613;SDS011;12760;46.296;25.290;2022-12-07T14:28:40;3.53;;;3.43;;
24613;SDS011;12760;46.296;25.290;2022-12-07T14:31:15;2.43;;;2.33;;
24613;SDS011;12760;46.296;25.290;2022-12-07T14:33:43;3.20;;;3.10;;
24613;SDS011;12760;46.296;25.290;2022-12-07T14:36:09;2.93;;;2.83;;
24613;SDS011;12760;46.296;25.290;2022-12-07T14:38:37;3.07;;;2.87;;
24613;SDS011;12760;46.296;25.290;2022-12-07T14:41:03;3.03;;;2.93;;
24613;SDS011;12760;46.296;25.290;2022-12-07T14:43:49;3.27;;;3.13;;
24613;SDS011;12760;46.296;25.290;2022-12-07T14:46:15;8.87;;;7.97;;
24613;SDS011;12760;46.296;25.290;2022-12-07T14:48:41;1.57;;;1.57;;
24613;SDS011;12760;46.296;25.290;2022-12-07T14:51:07;4.17;;;4.03;;
24613;SDS011;12760;46.296;25.290;2022-12-07T14:53:37;3.97;;;3.80;;
24613;SDS011;12760;46.296;25.290;2022-12-07T14:56:11;4.43;;;4.03;;
24613;SDS011;12760;46.296;25.290;2022-12-07T14:58:36;4.60;;;4.40;;
24613;SDS011;12760;46.296;25.290;2022-12-07T15:01:02;12.93;;;7.57;;
24613;SDS011;12760;46.296;25.290;2022-12-07T15:03:28;4.77;;;4.50;;
24613;SDS011;12760;46.296;25.290;2022-12-07T15:05:54;6.43;;;6.07;;
24613;SDS011;12760;46.296;25.290;2022-12-07T15:08:20;4.93;;;4.70;;
24613;SDS011;12760;46.296;25.290;2022-12-07T15:10:46;4.60;;;4.40;;
24613;SDS011;12760;46.296;25.290;2022-12-07T15:13:12;5.33;;;4.37;;
24613;SDS011;12760;46.296;25.290;2022-12-07T15:16:00;7.87;;;7.17;;
24613;SDS011;12760;46.296;25.290;2022-12-07T15:18:27;4.50;;;4.27;;
24613;SDS011;12760;46.296;25.290;2022-12-07T15:20:53;5.43;;;4.60;;
24613;SDS011;12760;46.296;25.290;2022-12-07T15:23:18;19.93;;;6.83;;
24613;SDS011;12760;46.296;25.290;2022-12-07T15:25:45;20.83;;;6.17;;
24613;SDS011;12760;46.296;25.290;2022-12-07T15:28:12;4.63;;;4.23;;
24613;SDS011;12760;46.296;25.290;2022-12-07T15:30:38;3.83;;;3.63;;
24613;SDS011;12760;46.296;25.290;2022-12-07T15:33:05;5.27;;;4.97;;
24613;SDS011;12760;46.296;25.290;2022-12-07T15:35:31;5.37;;;4.97;;
24613;SDS011;12760;46.296;25.290;2022-12-07T15:37:57;4.67;;;4.40;;
24613;SDS011;12760;46.296;25.290;2022-12-07T15:40:22;7.77;;;6.60;;
24613;SDS011;12760;46.296;25.290;2022-12-07T15:42:48;4.57;;;3.67;;
24613;SDS011;12760;46.296;25.290;2022-12-07T15:45:14;3.20;;;3.00;;
24613;SDS011;12760;46.296;25.290;2022-12-07T15:47:40;4.03;;;3.83;;
24613;SDS011;12760;46.296;25.290;2022-12-07T15:50:08;4.70;;;4.30;;
24613;SDS011;12760;46.296;25.290;2022-12-07T15:52:37;5.83;;;5.47;;
24613;SDS011;12760;46.296;25.290;2022-12-07T15:55:02;6.77;;;3.53;;
24613;SDS011;12760;46.296;25.290;2022-12-07T15:57:32;7.40;;;6.77;;
24613;SDS011;12760;46.296;25.290;2022-12-07T16:00:00;16.13;;;6.23;;
24613;SDS011;12760;46.296;25.290;2022-12-07T16:02:26;2.97;;;2.87;;
24613;SDS011;12760;46.296;25.290;2022-12-07T16:04:51;5.23;;;4.97;;
24613;SDS011;12760;46.296;25.290;2022-12-07T16:07:18;3.83;;;3.57;;
24613;SDS011;12760;46.296;25.290;2022-12-07T16:09:44;5.83;;;5.43;;
24613;SDS011;12760;46.296;25.290;2022-12-07T16:12:11;8.40;;;6.53;;
24613;SDS011;12760;46.296;25.290;2022-12-07T16:14:38;5.30;;;5.00;;
24613;SDS011;12760;46.296;25.290;2022-12-07T16:17:04;8.07;;;7.23;;
24613;SDS011;12760;46.296;25.290;2022-12-07T16:19:31;5.73;;;5.37;;
24613;SDS011;12760;46.296;25.290;2022-12-07T16:21:57;5.10;;;4.70;;
24613;SDS011;12760;46.296;25.290;2022-12-07T16:24:23;9.23;;;8.30;;
24613;SDS011;12760;46.296;25.290;2022-12-07T16:26:49;17.47;;;11.23;;
24613;SDS011;12760;46.296;25.290;2022-12-07T16:29:15;8.97;;;8.53;;
24613;SDS011;12760;46.296;25.290;2022-12-07T16:31:41;14.67;;;12.53;;
24613;SDS011;12760;46.296;25.290;2022-12-07T16:34:07;12.33;;;11.47;;
24613;SDS011;12760;46.296;25.290;2022-12-07T16:36:34;10.57;;;9.73;;
24613;SDS011;12760;46.296;25.290;2022-12-07T16:38:59;16.90;;;11.97;;
24613;SDS011;12760;46.296;25.290;2022-12-07T16:41:26;8.43;;;7.97;;
24613;SDS011;12760;46.296;25.290;2022-12-07T16:43:52;8.00;;;7.50;;
24613;SDS011;12760;46.296;25.290;2022-12-07T16:46:17;10.10;;;9.27;;
24613;SDS011;12760;46.296;25.290;2022-12-07T16:48:44;11.37;;;9.27;;
24613;SDS011;12760;46.296;25.290;2022-12-07T16:51:11;14.37;;;13.03;;
24613;SDS011;12760;46.296;25.290;2022-12-07T16:53:39;9.83;;;8.90;;
24613;SDS011;12760;46.296;25.290;2022-12-07T16:56:10;7.70;;;5.97;;
24613;SDS011;12760;46.296;25.290;2022-12-07T16:58:37;8.33;;;7.27;;
24613;SDS011;12760;46.296;25.290;2022-12-07T17:01:13;9.77;;;5.30;;
24613;SDS011;12760;46.296;25.290;2022-12-07T17:03:41;12.40;;;10.80;;
24613;SDS011;12760;46.296;25.290;2022-12-07T17:06:26;10.60;;;8.47;;